sensor_id;sensor_type;location;lat;lon;timestamp;P1;durP1;ratioP1;P2;durP2;ratioP2
75303;SDS011;64042;50.916;6.988;2023-02-12T00:00:05;32.42;;;18.38;;
75303;SDS011;64042;50.916;6.988;2023-02-12T00:02:31;30.45;;;18.70;;
75303;SDS011;64042;50.916;6.988;2023-02-12T00:04:57;30.80;;;17.50;;
75303;SDS011;64042;50.916;6.988;2023-02-12T00:07:22;32.93;;;18.10;;
75303;SDS011;64042;50.916;6.988;2023-02-12T00:09:47;32.10;;;17.58;;
75303;SDS011;64042;50.916;6.988;2023-02-12T00:12:13;30.42;;;18.30;;
75303;SDS011;64042;50.916;6.988;2023-02-12T00:14:38;30.50;;;17.10;;
75303;SDS011;64042;50.916;6.988;2023-02-12T00:17:04;28.35;;;16.58;;
75303;SDS011;64042;50.916;6.988;2023-02-12T00:19:29;28.38;;;17.67;;
75303;SDS011;64042;50.916;6.988;2023-02-12T00:21:55;30.65;;;16.88;;
75303;SDS011;64042;50.916;6.988;2023-02-12T00:24:20;30.48;;;17.38;;
75303;SDS011;64042;50.916;6.988;2023-02-12T00:26:45;30.63;;;18.03;;
75303;SDS011;64042;50.916;6.988;2023-02-12T00:29:12;28.98;;;17.40;;
75303;SDS011;64042;50.916;6.988;2023-02-12T00:31:38;29.60;;;17.10;;
75303;SDS011;64042;50.916;6.988;2023-02-12T00:34:03;28.98;;;17.05;;
75303;SDS011;64042;50.916;6.988;2023-02-12T00:36:29;27.50;;;16.02;;
75303;SDS011;64042;50.916;6.988;2023-02-12T00:38:55;27.63;;;17.08;;
75303;SDS011;64042;50.916;6.988;2023-02-12T00:41:21;28.63;;;16.23;;
75303;SDS011;64042;50.916;6.988;2023-02-12T00:43:47;27.50;;;17.83;;
75303;SDS011;64042;50.916;6.988;2023-02-12T00:46:12;28.58;;;17.00;;
75303;SDS011;64042;50.916;6.988;2023-02-12T00:48:38;26.63;;;16.20;;
75303;SDS011;64042;50.916;6.988;2023-02-12T00:51:04;29.48;;;16.23;;
75303;SDS011;64042;50.916;6.988;2023-02-12T00:53:29;27.02;;;16.08;;
75303;SDS011;64042;50.916;6.988;2023-02-12T00:55:55;28.25;;;15.98;;
75303;SDS011;64042;50.916;6.988;2023-02-12T00:58:20;30.15;;;17.38;;
75303;SDS011;64042;50.916;6.988;2023-02-12T01:00:46;26.13;;;15.50;;
75303;SDS011;64042;50.916;6.988;2023-02-12T01:03:11;28.58;;;15.85;;
75303;SDS011;64042;50.916;6.988;2023-02-12T01:05:37;27.23;;;15.57;;
75303;SDS011;64042;50.916;6.988;2023-02-12T01:08:02;27.73;;;15.45;;
75303;SDS011;64042;50.916;6.988;2023-02-12T01:10:28;28.67;;;15.18;;
75303;SDS011;64042;50.916;6.988;2023-02-12T01:12:54;25.08;;;16.38;;
75303;SDS011;64042;50.916;6.988;2023-02-12T01:15:19;25.30;;;15.32;;
75303;SDS011;64042;50.916;6.988;2023-02-12T01:17:45;26.27;;;17.15;;
75303;SDS011;64042;50.916;6.988;2023-02-12T01:20:12;26.10;;;15.85;;
75303;SDS011;64042;50.916;6.988;2023-02-12T01:22:41;25.73;;;14.52;;
75303;SDS011;64042;50.916;6.988;2023-02-12T01:25:07;25.23;;;15.43;;
75303;SDS011;64042;50.916;6.988;2023-02-12T01:27:32;24.23;;;14.40;;
75303;SDS011;64042;50.916;6.988;2023-02-12T01:29:58;25.90;;;16.05;;
75303;SDS011;64042;50.916;6.988;2023-02-12T01:32:23;28.23;;;15.75;;
75303;SDS011;64042;50.916;6.988;2023-02-12T01:34:48;24.95;;;14.40;;
75303;SDS011;64042;50.916;6.988;2023-02-12T01:37:14;24.93;;;15.03;;
75303;SDS011;64042;50.916;6.988;2023-02-12T01:39:39;23.23;;;14.18;;
75303;SDS011;64042;50.916;6.988;2023-02-12T01:42:04;24.20;;;13.83;;
75303;SDS011;64042;50.916;6.988;2023-02-12T01:44:30;25.00;;;15.30;;
75303;SDS011;64042;50.916;6.988;2023-02-12T01:46:58;23.63;;;15.05;;
75303;SDS011;64042;50.916;6.988;2023-02-12T01:52:04;24.73;;;14.40;;
75303;SDS011;64042;50.916;6.988;2023-02-12T01:54:33;26.05;;;14.45;;
75303;SDS011;64042;50.916;6.988;2023-02-12T01:57:00;23.30;;;14.50;;
75303;SDS011;64042;50.916;6.988;2023-02-12T01:59:26;25.13;;;14.80;;
75303;SDS011;64042;50.916;6.988;2023-02-12T02:01:52;25.40;;;14.73;;
75303;SDS011;64042;50.916;6.988;2023-02-12T02:04:18;24.02;;;14.35;;
75303;SDS011;64042;50.916;6.988;2023-02-12T02:06:49;27.20;;;16.10;;
75303;SDS011;64042;50.916;6.988;2023-02-12T02:09:18;25.75;;;14.88;;
75303;SDS011;64042;50.916;6.988;2023-02-12T02:11:44;24.90;;;15.25;;
75303;SDS011;64042;50.916;6.988;2023-02-12T02:14:29;27.42;;;15.15;;
75303;SDS011;64042;50.916;6.988;2023-02-12T02:17:19;23.63;;;15.88;;
75303;SDS011;64042;50.916;6.988;2023-02-12T02:33:58;23.88;;;15.32;;
75303;SDS011;64042;50.916;6.988;2023-02-12T02:36:34;25.05;;;14.98;;
75303;SDS011;64042;50.916;6.988;2023-02-12T02:39:11;22.17;;;13.63;;
75303;SDS011;64042;50.916;6.988;2023-02-12T02:44:12;20.25;;;13.52;;
75303;SDS011;64042;50.916;6.988;2023-02-12T02:46:45;23.05;;;14.52;;
75303;SDS011;64042;50.916;6.988;2023-02-12T02:49:15;22.23;;;15.25;;
75303;SDS011;64042;50.916;6.988;2023-02-12T02:51:44;20.23;;;13.73;;
75303;SDS011;64042;50.916;6.988;2023-02-12T02:54:14;19.02;;;12.20;;
75303;SDS011;64042;50.916;6.988;2023-02-12T02:56:43;19.88;;;13.70;;
75303;SDS011;64042;50.916;6.988;2023-02-12T02:59:11;23.00;;;15.05;;
75303;SDS011;64042;50.916;6.988;2023-02-12T03:01:40;22.40;;;13.90;;
75303;SDS011;64042;50.916;6.988;2023-02-12T03:04:17;21.38;;;13.93;;
75303;SDS011;64042;50.916;6.988;2023-02-12T03:06:48;19.77;;;13.15;;
75303;SDS011;64042;50.916;6.988;2023-02-12T03:09:23;21.00;;;12.93;;
75303;SDS011;64042;50.916;6.988;2023-02-12T03:11:57;21.95;;;14.02;;
75303;SDS011;64042;50.916;6.988;2023-02-12T03:14:27;22.65;;;14.52;;
75303;SDS011;64042;50.916;6.988;2023-02-12T03:17:02;19.90;;;13.00;;
75303;SDS011;64042;50.916;6.988;2023-02-12T03:19:31;19.33;;;13.23;;
75303;SDS011;64042;50.916;6.988;2023-02-12T03:22:04;21.55;;;13.38;;
75303;SDS011;64042;50.916;6.988;2023-02-12T03:24:43;20.35;;;13.70;;
75303;SDS011;64042;50.916;6.988;2023-02-12T03:27:26;20.15;;;13.43;;
75303;SDS011;64042;50.916;6.988;2023-02-12T03:29:54;20.65;;;13.25;;
75303;SDS011;64042;50.916;6.988;2023-02-12T03:32:22;19.60;;;14.15;;
75303;SDS011;64042;50.916;6.988;2023-02-12T03:43:18;19.23;;;12.80;;
75303;SDS011;64042;50.916;6.988;2023-02-12T03:45:58;21.17;;;13.57;;
75303;SDS011;64042;50.916;6.988;2023-02-12T03:48:29;21.05;;;12.93;;
75303;SDS011;64042;50.916;6.988;2023-02-12T03:51:02;21.83;;;13.68;;
75303;SDS011;64042;50.916;6.988;2023-02-12T03:53:29;20.17;;;12.52;;
75303;SDS011;64042;50.916;6.988;2023-02-12T03:55:56;20.25;;;13.40;;
75303;SDS011;64042;50.916;6.988;2023-02-12T03:58:27;19.73;;;13.32;;
75303;SDS011;64042;50.916;6.988;2023-02-12T04:00:53;18.27;;;13.40;;
75303;SDS011;64042;50.916;6.988;2023-02-12T04:03:18;23.40;;;14.48;;
75303;SDS011;64042;50.916;6.988;2023-02-12T04:05:44;17.80;;;12.63;;
75303;SDS011;64042;50.916;6.988;2023-02-12T04:08:09;20.42;;;12.43;;
75303;SDS011;64042;50.916;6.988;2023-02-12T04:13:18;18.40;;;11.95;;
75303;SDS011;64042;50.916;6.988;2023-02-12T04:15:59;21.90;;;12.95;;
75303;SDS011;64042;50.916;6.988;2023-02-12T04:18:34;18.52;;;12.13;;
75303;SDS011;64042;50.916;6.988;2023-02-12T04:21:06;18.17;;;12.32;;
75303;SDS011;64042;50.916;6.988;2023-02-12T04:23:57;16.75;;;12.05;;
75303;SDS011;64042;50.916;6.988;2023-02-12T04:29:29;19.35;;;12.27;;
75303;SDS011;64042;50.916;6.988;2023-02-12T04:32:16;18.58;;;11.80;;
75303;SDS011;64042;50.916;6.988;2023-02-12T04:37:22;19.23;;;12.13;;
75303;SDS011;64042;50.916;6.988;2023-02-12T04:39:50;19.90;;;13.68;;
75303;SDS011;64042;50.916;6.988;2023-02-12T04:42:17;17.95;;;12.68;;
75303;SDS011;64042;50.916;6.988;2023-02-12T04:44:42;17.27;;;12.17;;
75303;SDS011;64042;50.916;6.988;2023-02-12T04:47:15;20.60;;;13.75;;
75303;SDS011;64042;50.916;6.988;2023-02-12T04:49:41;17.50;;;13.98;;
75303;SDS011;64042;50.916;6.988;2023-02-12T04:52:06;19.48;;;14.00;;
75303;SDS011;64042;50.916;6.988;2023-02-12T04:54:32;17.80;;;12.63;;
75303;SDS011;64042;50.916;6.988;2023-02-12T04:56:57;17.53;;;12.83;;
75303;SDS011;64042;50.916;6.988;2023-02-12T04:59:22;18.13;;;12.73;;
75303;SDS011;64042;50.916;6.988;2023-02-12T05:01:48;16.20;;;12.25;;
75303;SDS011;64042;50.916;6.988;2023-02-12T05:04:14;15.93;;;11.73;;
75303;SDS011;64042;50.916;6.988;2023-02-12T05:06:40;18.15;;;12.98;;
75303;SDS011;64042;50.916;6.988;2023-02-12T05:09:06;19.05;;;13.05;;
75303;SDS011;64042;50.916;6.988;2023-02-12T05:11:32;19.48;;;13.43;;
75303;SDS011;64042;50.916;6.988;2023-02-12T05:13:58;18.58;;;11.93;;
75303;SDS011;64042;50.916;6.988;2023-02-12T05:16:23;16.88;;;11.52;;
75303;SDS011;64042;50.916;6.988;2023-02-12T05:18:49;18.67;;;11.63;;
75303;SDS011;64042;50.916;6.988;2023-02-12T05:21:14;15.93;;;10.25;;
75303;SDS011;64042;50.916;6.988;2023-02-12T05:23:40;16.73;;;11.68;;
75303;SDS011;64042;50.916;6.988;2023-02-12T05:26:13;17.65;;;11.73;;
75303;SDS011;64042;50.916;6.988;2023-02-12T05:31:05;17.67;;;11.30;;
75303;SDS011;64042;50.916;6.988;2023-02-12T05:33:32;16.50;;;11.48;;
75303;SDS011;64042;50.916;6.988;2023-02-12T05:36:08;17.02;;;11.18;;
75303;SDS011;64042;50.916;6.988;2023-02-12T05:38:34;16.17;;;11.25;;
75303;SDS011;64042;50.916;6.988;2023-02-12T05:41:01;17.27;;;12.02;;
75303;SDS011;64042;50.916;6.988;2023-02-12T05:43:30;16.02;;;10.88;;
75303;SDS011;64042;50.916;6.988;2023-02-12T05:45:59;16.25;;;11.25;;
75303;SDS011;64042;50.916;6.988;2023-02-12T05:48:26;14.90;;;11.02;;
75303;SDS011;64042;50.916;6.988;2023-02-12T05:50:51;15.23;;;11.02;;
75303;SDS011;64042;50.916;6.988;2023-02-12T05:53:16;15.00;;;10.93;;
75303;SDS011;64042;50.916;6.988;2023-02-12T05:55:42;16.97;;;11.43;;
75303;SDS011;64042;50.916;6.988;2023-02-12T05:58:07;14.88;;;10.85;;
75303;SDS011;64042;50.916;6.988;2023-02-12T06:00:32;18.17;;;11.97;;
75303;SDS011;64042;50.916;6.988;2023-02-12T06:02:58;15.45;;;12.15;;
75303;SDS011;64042;50.916;6.988;2023-02-12T06:05:23;14.50;;;10.93;;
75303;SDS011;64042;50.916;6.988;2023-02-12T06:07:48;17.70;;;11.53;;
75303;SDS011;64042;50.916;6.988;2023-02-12T06:10:14;13.17;;;11.47;;
75303;SDS011;64042;50.916;6.988;2023-02-12T06:12:39;16.13;;;10.97;;
75303;SDS011;64042;50.916;6.988;2023-02-12T06:15:04;16.33;;;10.85;;
75303;SDS011;64042;50.916;6.988;2023-02-12T06:17:30;15.93;;;10.85;;
75303;SDS011;64042;50.916;6.988;2023-02-12T06:19:55;16.30;;;10.80;;
75303;SDS011;64042;50.916;6.988;2023-02-12T06:22:20;15.13;;;10.63;;
75303;SDS011;64042;50.916;6.988;2023-02-12T06:24:46;15.57;;;11.10;;
75303;SDS011;64042;50.916;6.988;2023-02-12T06:27:11;16.90;;;13.38;;
75303;SDS011;64042;50.916;6.988;2023-02-12T06:29:36;15.67;;;10.40;;
75303;SDS011;64042;50.916;6.988;2023-02-12T06:32:02;15.93;;;9.97;;
75303;SDS011;64042;50.916;6.988;2023-02-12T06:34:27;16.17;;;10.98;;
75303;SDS011;64042;50.916;6.988;2023-02-12T06:36:52;12.63;;;10.13;;
75303;SDS011;64042;50.916;6.988;2023-02-12T06:39:17;13.93;;;10.27;;
75303;SDS011;64042;50.916;6.988;2023-02-12T06:41:43;15.25;;;10.27;;
75303;SDS011;64042;50.916;6.988;2023-02-12T06:44:09;14.20;;;10.07;;
75303;SDS011;64042;50.916;6.988;2023-02-12T06:46:34;13.60;;;10.43;;
75303;SDS011;64042;50.916;6.988;2023-02-12T06:48:59;14.07;;;10.73;;
75303;SDS011;64042;50.916;6.988;2023-02-12T06:51:26;14.32;;;11.73;;
75303;SDS011;64042;50.916;6.988;2023-02-12T06:53:52;14.88;;;11.00;;
75303;SDS011;64042;50.916;6.988;2023-02-12T06:56:18;13.45;;;10.38;;
75303;SDS011;64042;50.916;6.988;2023-02-12T06:58:45;14.50;;;11.55;;
75303;SDS011;64042;50.916;6.988;2023-02-12T07:01:15;13.35;;;10.63;;
75303;SDS011;64042;50.916;6.988;2023-02-12T07:03:46;14.50;;;10.40;;
75303;SDS011;64042;50.916;6.988;2023-02-12T07:06:13;15.73;;;12.07;;
75303;SDS011;64042;50.916;6.988;2023-02-12T07:08:39;14.15;;;10.15;;
75303;SDS011;64042;50.916;6.988;2023-02-12T07:11:05;14.45;;;10.48;;
75303;SDS011;64042;50.916;6.988;2023-02-12T07:13:30;15.02;;;11.63;;
75303;SDS011;64042;50.916;6.988;2023-02-12T07:16:01;14.95;;;10.40;;
75303;SDS011;64042;50.916;6.988;2023-02-12T07:18:27;13.18;;;10.27;;
75303;SDS011;64042;50.916;6.988;2023-02-12T07:20:54;13.67;;;10.63;;
75303;SDS011;64042;50.916;6.988;2023-02-12T07:23:20;14.45;;;11.00;;
75303;SDS011;64042;50.916;6.988;2023-02-12T07:25:53;15.73;;;10.07;;
75303;SDS011;64042;50.916;6.988;2023-02-12T07:28:19;13.48;;;10.98;;
75303;SDS011;64042;50.916;6.988;2023-02-12T07:30:44;16.00;;;11.10;;
75303;SDS011;64042;50.916;6.988;2023-02-12T07:33:09;13.87;;;11.23;;
75303;SDS011;64042;50.916;6.988;2023-02-12T07:35:34;13.90;;;10.50;;
75303;SDS011;64042;50.916;6.988;2023-02-12T07:38:00;12.63;;;9.25;;
75303;SDS011;64042;50.916;6.988;2023-02-12T07:40:25;13.63;;;9.73;;
75303;SDS011;64042;50.916;6.988;2023-02-12T07:42:53;14.63;;;10.23;;
75303;SDS011;64042;50.916;6.988;2023-02-12T07:45:19;13.77;;;10.50;;
75303;SDS011;64042;50.916;6.988;2023-02-12T07:47:45;12.63;;;10.40;;
75303;SDS011;64042;50.916;6.988;2023-02-12T07:50:10;14.27;;;10.40;;
75303;SDS011;64042;50.916;6.988;2023-02-12T07:52:35;13.82;;;10.15;;
75303;SDS011;64042;50.916;6.988;2023-02-12T07:55:00;12.57;;;9.40;;
75303;SDS011;64042;50.916;6.988;2023-02-12T07:57:26;13.80;;;11.25;;
75303;SDS011;64042;50.916;6.988;2023-02-12T07:59:51;13.83;;;10.50;;
75303;SDS011;64042;50.916;6.988;2023-02-12T08:02:17;15.37;;;11.87;;
75303;SDS011;64042;50.916;6.988;2023-02-12T08:04:42;12.45;;;9.57;;
75303;SDS011;64042;50.916;6.988;2023-02-12T08:07:07;13.60;;;9.67;;
75303;SDS011;64042;50.916;6.988;2023-02-12T08:09:33;13.27;;;10.63;;
75303;SDS011;64042;50.916;6.988;2023-02-12T08:11:59;13.50;;;10.13;;
75303;SDS011;64042;50.916;6.988;2023-02-12T08:14:25;12.88;;;10.10;;
75303;SDS011;64042;50.916;6.988;2023-02-12T08:16:50;12.77;;;9.98;;
75303;SDS011;64042;50.916;6.988;2023-02-12T08:19:16;12.10;;;9.70;;
75303;SDS011;64042;50.916;6.988;2023-02-12T08:21:42;13.13;;;10.02;;
75303;SDS011;64042;50.916;6.988;2023-02-12T08:24:08;11.95;;;8.48;;
75303;SDS011;64042;50.916;6.988;2023-02-12T08:26:37;14.48;;;10.13;;
75303;SDS011;64042;50.916;6.988;2023-02-12T08:31:48;14.57;;;10.70;;
75303;SDS011;64042;50.916;6.988;2023-02-12T08:34:16;12.25;;;9.70;;
75303;SDS011;64042;50.916;6.988;2023-02-12T08:36:43;15.13;;;10.18;;
75303;SDS011;64042;50.916;6.988;2023-02-12T08:39:08;12.57;;;10.15;;
75303;SDS011;64042;50.916;6.988;2023-02-12T08:41:34;11.93;;;9.40;;
75303;SDS011;64042;50.916;6.988;2023-02-12T08:44:01;11.82;;;10.45;;
75303;SDS011;64042;50.916;6.988;2023-02-12T08:46:28;13.15;;;10.52;;
75303;SDS011;64042;50.916;6.988;2023-02-12T08:48:56;14.18;;;10.68;;
75303;SDS011;64042;50.916;6.988;2023-02-12T08:51:23;14.20;;;11.07;;
75303;SDS011;64042;50.916;6.988;2023-02-12T08:56:18;12.18;;;10.48;;
75303;SDS011;64042;50.916;6.988;2023-02-12T08:58:44;12.30;;;9.05;;
75303;SDS011;64042;50.916;6.988;2023-02-12T09:01:10;12.10;;;10.10;;
75303;SDS011;64042;50.916;6.988;2023-02-12T09:03:37;12.38;;;9.52;;
75303;SDS011;64042;50.916;6.988;2023-02-12T09:06:04;13.32;;;11.27;;
75303;SDS011;64042;50.916;6.988;2023-02-12T09:08:30;12.35;;;10.38;;
75303;SDS011;64042;50.916;6.988;2023-02-12T09:10:56;14.32;;;9.50;;
75303;SDS011;64042;50.916;6.988;2023-02-12T09:13:21;13.20;;;9.65;;
75303;SDS011;64042;50.916;6.988;2023-02-12T09:15:47;12.40;;;9.57;;
75303;SDS011;64042;50.916;6.988;2023-02-12T09:18:13;13.30;;;9.95;;
75303;SDS011;64042;50.916;6.988;2023-02-12T09:20:39;10.93;;;9.25;;
75303;SDS011;64042;50.916;6.988;2023-02-12T09:23:06;13.30;;;9.75;;
75303;SDS011;64042;50.916;6.988;2023-02-12T09:25:32;11.70;;;9.57;;
75303;SDS011;64042;50.916;6.988;2023-02-12T09:27:59;11.50;;;10.25;;
75303;SDS011;64042;50.916;6.988;2023-02-12T09:30:25;12.82;;;9.52;;
75303;SDS011;64042;50.916;6.988;2023-02-12T09:32:50;12.02;;;10.05;;
75303;SDS011;64042;50.916;6.988;2023-02-12T09:35:16;13.02;;;9.50;;
75303;SDS011;64042;50.916;6.988;2023-02-12T09:37:42;14.32;;;11.32;;
75303;SDS011;64042;50.916;6.988;2023-02-12T09:40:09;13.13;;;11.15;;
75303;SDS011;64042;50.916;6.988;2023-02-12T09:45:16;13.43;;;9.98;;
75303;SDS011;64042;50.916;6.988;2023-02-12T09:47:53;15.07;;;9.98;;
75303;SDS011;64042;50.916;6.988;2023-02-12T09:53:15;12.63;;;10.68;;
75303;SDS011;64042;50.916;6.988;2023-02-12T09:55:42;12.52;;;9.65;;
75303;SDS011;64042;50.916;6.988;2023-02-12T09:58:11;12.40;;;9.52;;
75303;SDS011;64042;50.916;6.988;2023-02-12T10:00:39;13.23;;;9.90;;
75303;SDS011;64042;50.916;6.988;2023-02-12T10:03:10;12.18;;;9.90;;
75303;SDS011;64042;50.916;6.988;2023-02-12T10:05:41;12.68;;;9.98;;
75303;SDS011;64042;50.916;6.988;2023-02-12T10:08:30;12.02;;;10.48;;
75303;SDS011;64042;50.916;6.988;2023-02-12T10:11:15;12.23;;;10.70;;
75303;SDS011;64042;50.916;6.988;2023-02-12T10:22:06;12.10;;;8.75;;
75303;SDS011;64042;50.916;6.988;2023-02-12T10:28:13;11.18;;;8.98;;
75303;SDS011;64042;50.916;6.988;2023-02-12T10:30:48;13.05;;;11.65;;
75303;SDS011;64042;50.916;6.988;2023-02-12T10:33:19;11.82;;;8.70;;
75303;SDS011;64042;50.916;6.988;2023-02-12T10:35:55;11.48;;;9.52;;
75303;SDS011;64042;50.916;6.988;2023-02-12T10:38:25;10.43;;;8.90;;
75303;SDS011;64042;50.916;6.988;2023-02-12T10:40:54;11.27;;;9.27;;
75303;SDS011;64042;50.916;6.988;2023-02-12T10:43:22;11.65;;;8.90;;
75303;SDS011;64042;50.916;6.988;2023-02-12T10:45:48;11.40;;;9.48;;
75303;SDS011;64042;50.916;6.988;2023-02-12T10:48:28;11.23;;;9.63;;
75303;SDS011;64042;50.916;6.988;2023-02-12T10:53:34;10.85;;;9.43;;
75303;SDS011;64042;50.916;6.988;2023-02-12T11:01:15;11.63;;;9.48;;
75303;SDS011;64042;50.916;6.988;2023-02-12T11:03:51;10.13;;;8.75;;
75303;SDS011;64042;50.916;6.988;2023-02-12T11:06:19;11.05;;;9.27;;
75303;SDS011;64042;50.916;6.988;2023-02-12T11:08:46;12.70;;;8.93;;
75303;SDS011;64042;50.916;6.988;2023-02-12T11:11:18;12.27;;;8.57;;
75303;SDS011;64042;50.916;6.988;2023-02-12T11:13:46;12.68;;;8.88;;
75303;SDS011;64042;50.916;6.988;2023-02-12T11:16:31;11.13;;;9.10;;
75303;SDS011;64042;50.916;6.988;2023-02-12T11:18:59;10.80;;;9.25;;
75303;SDS011;64042;50.916;6.988;2023-02-12T11:21:25;11.07;;;8.93;;
75303;SDS011;64042;50.916;6.988;2023-02-12T11:23:51;11.33;;;10.10;;
75303;SDS011;64042;50.916;6.988;2023-02-12T11:28:44;9.70;;;8.57;;
75303;SDS011;64042;50.916;6.988;2023-02-12T11:31:22;11.30;;;9.73;;
75303;SDS011;64042;50.916;6.988;2023-02-12T11:36:37;11.27;;;8.38;;
75303;SDS011;64042;50.916;6.988;2023-02-12T11:39:07;9.27;;;8.05;;
75303;SDS011;64042;50.916;6.988;2023-02-12T11:41:42;12.75;;;9.05;;
75303;SDS011;64042;50.916;6.988;2023-02-12T11:44:11;9.98;;;8.68;;
75303;SDS011;64042;50.916;6.988;2023-02-12T11:46:37;10.13;;;8.57;;
75303;SDS011;64042;50.916;6.988;2023-02-12T11:49:04;12.20;;;9.38;;
75303;SDS011;64042;50.916;6.988;2023-02-12T11:51:29;11.65;;;10.40;;
75303;SDS011;64042;50.916;6.988;2023-02-12T11:53:56;10.32;;;9.23;;
75303;SDS011;64042;50.916;6.988;2023-02-12T11:56:24;10.95;;;9.65;;
75303;SDS011;64042;50.916;6.988;2023-02-12T11:58:51;9.77;;;7.80;;
75303;SDS011;64042;50.916;6.988;2023-02-12T12:01:20;8.82;;;7.85;;
75303;SDS011;64042;50.916;6.988;2023-02-12T12:04:02;10.15;;;8.68;;
75303;SDS011;64042;50.916;6.988;2023-02-12T12:14:06;10.48;;;8.18;;
75303;SDS011;64042;50.916;6.988;2023-02-12T12:16:37;10.95;;;8.50;;
75303;SDS011;64042;50.916;6.988;2023-02-12T12:19:49;10.70;;;8.23;;
75303;SDS011;64042;50.916;6.988;2023-02-12T12:22:22;10.40;;;8.68;;
75303;SDS011;64042;50.916;6.988;2023-02-12T12:41:39;9.85;;;8.48;;
75303;SDS011;64042;50.916;6.988;2023-02-12T12:47:04;11.52;;;8.75;;
75303;SDS011;64042;50.916;6.988;2023-02-12T12:52:25;10.13;;;7.85;;
75303;SDS011;64042;50.916;6.988;2023-02-12T12:55:01;10.57;;;8.27;;
75303;SDS011;64042;50.916;6.988;2023-02-12T12:57:41;9.10;;;7.88;;
75303;SDS011;64042;50.916;6.988;2023-02-12T13:03:15;9.80;;;8.45;;
75303;SDS011;64042;50.916;6.988;2023-02-12T13:09:01;10.07;;;8.15;;
75303;SDS011;64042;50.916;6.988;2023-02-12T13:11:37;8.82;;;7.95;;
75303;SDS011;64042;50.916;6.988;2023-02-12T13:14:31;8.52;;;7.32;;
75303;SDS011;64042;50.916;6.988;2023-02-12T13:22:37;9.80;;;7.32;;
75303;SDS011;64042;50.916;6.988;2023-02-12T13:25:20;7.65;;;6.75;;
75303;SDS011;64042;50.916;6.988;2023-02-12T13:27:49;9.13;;;7.15;;
75303;SDS011;64042;50.916;6.988;2023-02-12T13:30:19;9.25;;;7.18;;
75303;SDS011;64042;50.916;6.988;2023-02-12T13:33:04;8.15;;;7.35;;
75303;SDS011;64042;50.916;6.988;2023-02-12T13:35:33;7.70;;;7.00;;
75303;SDS011;64042;50.916;6.988;2023-02-12T13:38:01;9.10;;;7.57;;
75303;SDS011;64042;50.916;6.988;2023-02-12T13:40:27;9.70;;;7.45;;
75303;SDS011;64042;50.916;6.988;2023-02-12T13:46:07;9.13;;;7.07;;
75303;SDS011;64042;50.916;6.988;2023-02-12T13:51:37;7.78;;;6.50;;
75303;SDS011;64042;50.916;6.988;2023-02-12T13:56:59;8.30;;;6.70;;
75303;SDS011;64042;50.916;6.988;2023-02-12T14:01:54;7.93;;;7.13;;
75303;SDS011;64042;50.916;6.988;2023-02-12T14:09:31;7.45;;;5.95;;
75303;SDS011;64042;50.916;6.988;2023-02-12T14:12:00;7.32;;;6.25;;
75303;SDS011;64042;50.916;6.988;2023-02-12T14:14:30;8.70;;;7.15;;
75303;SDS011;64042;50.916;6.988;2023-02-12T14:17:00;8.45;;;6.85;;
75303;SDS011;64042;50.916;6.988;2023-02-12T14:19:55;7.68;;;6.47;;
75303;SDS011;64042;50.916;6.988;2023-02-12T14:24:52;8.30;;;6.82;;
75303;SDS011;64042;50.916;6.988;2023-02-12T14:27:33;7.93;;;6.47;;
75303;SDS011;64042;50.916;6.988;2023-02-12T14:30:20;7.57;;;6.28;;
75303;SDS011;64042;50.916;6.988;2023-02-12T14:37:50;8.43;;;6.68;;
75303;SDS011;64042;50.916;6.988;2023-02-12T14:42:57;21.38;;;11.30;;
75303;SDS011;64042;50.916;6.988;2023-02-12T14:45:26;25.15;;;13.55;;
75303;SDS011;64042;50.916;6.988;2023-02-12T14:47:52;31.83;;;14.32;;
75303;SDS011;64042;50.916;6.988;2023-02-12T14:50:20;27.48;;;13.13;;
75303;SDS011;64042;50.916;6.988;2023-02-12T14:52:50;24.92;;;13.43;;
75303;SDS011;64042;50.916;6.988;2023-02-12T14:57:44;27.65;;;13.13;;
75303;SDS011;64042;50.916;6.988;2023-02-12T15:02:47;24.38;;;12.27;;
75303;SDS011;64042;50.916;6.988;2023-02-12T15:05:25;28.92;;;11.80;;
75303;SDS011;64042;50.916;6.988;2023-02-12T15:07:54;25.85;;;13.55;;
75303;SDS011;64042;50.916;6.988;2023-02-12T15:10:36;22.52;;;11.93;;
75303;SDS011;64042;50.916;6.988;2023-02-12T15:15:54;20.45;;;11.13;;
75303;SDS011;64042;50.916;6.988;2023-02-12T15:18:42;22.50;;;11.40;;
75303;SDS011;64042;50.916;6.988;2023-02-12T15:21:22;22.17;;;11.35;;
75303;SDS011;64042;50.916;6.988;2023-02-12T15:26:32;21.60;;;11.77;;
75303;SDS011;64042;50.916;6.988;2023-02-12T15:28:59;18.58;;;10.75;;
75303;SDS011;64042;50.916;6.988;2023-02-12T15:31:25;22.60;;;12.10;;
75303;SDS011;64042;50.916;6.988;2023-02-12T15:33:53;21.50;;;11.05;;
75303;SDS011;64042;50.916;6.988;2023-02-12T15:36:21;19.58;;;10.27;;
75303;SDS011;64042;50.916;6.988;2023-02-12T15:43:58;19.83;;;10.77;;
75303;SDS011;64042;50.916;6.988;2023-02-12T15:46:24;16.60;;;9.38;;
75303;SDS011;64042;50.916;6.988;2023-02-12T15:48:49;21.75;;;10.40;;
75303;SDS011;64042;50.916;6.988;2023-02-12T15:51:17;18.77;;;10.05;;
75303;SDS011;64042;50.916;6.988;2023-02-12T15:53:46;18.85;;;10.15;;
75303;SDS011;64042;50.916;6.988;2023-02-12T15:56:12;18.08;;;9.23;;
75303;SDS011;64042;50.916;6.988;2023-02-12T15:58:52;19.65;;;9.35;;
75303;SDS011;64042;50.916;6.988;2023-02-12T16:01:20;15.68;;;9.85;;
75303;SDS011;64042;50.916;6.988;2023-02-12T16:03:48;17.10;;;10.02;;
75303;SDS011;64042;50.916;6.988;2023-02-12T16:06:15;16.50;;;8.68;;
75303;SDS011;64042;50.916;6.988;2023-02-12T16:08:42;17.45;;;8.63;;
75303;SDS011;64042;50.916;6.988;2023-02-12T16:11:09;15.23;;;8.70;;
75303;SDS011;64042;50.916;6.988;2023-02-12T16:13:43;16.15;;;9.20;;
75303;SDS011;64042;50.916;6.988;2023-02-12T16:18:35;15.13;;;8.43;;
75303;SDS011;64042;50.916;6.988;2023-02-12T16:21:05;13.73;;;8.27;;
75303;SDS011;64042;50.916;6.988;2023-02-12T16:23:36;12.85;;;7.88;;
75303;SDS011;64042;50.916;6.988;2023-02-12T16:26:02;13.45;;;8.38;;
75303;SDS011;64042;50.916;6.988;2023-02-12T16:28:28;16.48;;;9.25;;
75303;SDS011;64042;50.916;6.988;2023-02-12T16:31:11;18.10;;;9.52;;
75303;SDS011;64042;50.916;6.988;2023-02-12T16:36:03;16.80;;;8.53;;
75303;SDS011;64042;50.916;6.988;2023-02-12T16:38:50;13.15;;;8.60;;
75303;SDS011;64042;50.916;6.988;2023-02-12T16:46:23;17.17;;;8.55;;
75303;SDS011;64042;50.916;6.988;2023-02-12T16:48:49;13.77;;;8.85;;
75303;SDS011;64042;50.916;6.988;2023-02-12T16:51:20;13.13;;;8.13;;
75303;SDS011;64042;50.916;6.988;2023-02-12T16:53:45;14.07;;;8.15;;
75303;SDS011;64042;50.916;6.988;2023-02-12T16:56:12;16.02;;;8.27;;
75303;SDS011;64042;50.916;6.988;2023-02-12T16:58:42;16.00;;;7.85;;
75303;SDS011;64042;50.916;6.988;2023-02-12T17:01:20;16.00;;;9.00;;
75303;SDS011;64042;50.916;6.988;2023-02-12T17:03:47;14.65;;;7.93;;
75303;SDS011;64042;50.916;6.988;2023-02-12T17:06:15;12.68;;;8.20;;
75303;SDS011;64042;50.916;6.988;2023-02-12T17:08:41;13.43;;;7.60;;
75303;SDS011;64042;50.916;6.988;2023-02-12T17:11:07;13.25;;;8.68;;
75303;SDS011;64042;50.916;6.988;2023-02-12T17:13:32;14.05;;;7.85;;
75303;SDS011;64042;50.916;6.988;2023-02-12T17:15:59;12.63;;;8.32;;
75303;SDS011;64042;50.916;6.988;2023-02-12T17:18:27;11.70;;;7.72;;
75303;SDS011;64042;50.916;6.988;2023-02-12T17:20:58;13.32;;;7.70;;
75303;SDS011;64042;50.916;6.988;2023-02-12T17:23:24;13.30;;;6.90;;
75303;SDS011;64042;50.916;6.988;2023-02-12T17:25:50;12.85;;;7.95;;